Latest Coastal Weather Observations for Hobart

IDT60701

Issued at 11:02 pm EST Monday 4 May 2015 (issued every 10 minutes, with the page automatically refreshed every 10 minutes)

About coastal observations | Map of coastal stations | Coastal observations for TAS | Marine services | Other Formats
Station Details ID: 094029 Name: HOBART (ELLERSLIE ROAD) Lat: -42.89 Lon: 147.33 Height: 50.5 m
Data from the previous 72 hours. | See also: Recent months at Hobart
Date/Time
EST
Temp

°C
Wind Pressure Rain
since 9am
mm
Weather Cloud Vis
km
Sea
Height
m
Swell
Dir
 
Speed
knots
Gust
knots
hPa Trend Height
m
Period
s
Dir
04/11:00pm 14.1 N 12 17 1001.3 - 0.0 - - - - - - -
04/10:30pm 14.0 N 13 22 1002.5 - 0.0 - - - - - - -
04/10:00pm 14.1 NNW 15 21 1002.6 - 0.0 - - - - - - -
04/09:30pm 14.1 NNW 15 20 1003.3 - 0.0 - - - - - - -
04/09:00pm 14.2 NNW 13 19 1003.6 - 0.0 - - - - - - -
04/08:30pm 14.0 NNW 9 14 1004.0 - 0.0 - - - - - - -
04/08:00pm 14.5 NNW 10 15 1004.7 - 0.0 - - - - - - -
04/07:30pm 14.5 NNW 10 15 1005.1 - 0.0 - - - - - - -
04/07:00pm 14.5 NNW 12 17 1005.6 - 0.0 - - - - - - -
04/06:30pm 14.5 NNW 11 16 1005.8 - 0.0 - - - - - - -
04/06:00pm 14.9 N 9 14 1005.9 - 0.0 - - - - - - -
04/05:30pm 15.4 N 6 9 1006.1 - 0.0 - - - - - - -
04/05:00pm 15.5 NNW 9 12 1006.5 - 0.0 - - - - - - -
04/04:30pm 15.8 NNW 6 9 1006.5 - 0.0 - - - - - - -
04/04:00pm 15.9 N 7 11 1007.4 - 0.0 - - - - - - -
04/03:30pm 16.2 N 5 8 1008.0 - 0.0 - - - - - - -
04/03:00pm 16.6 NNW 8 11 1008.4 - 0.0 - - - - - - -
04/02:30pm 16.9 NNW 8 13 1008.3 - 0.0 - - - - - - -
04/02:00pm 17.0 NNW 9 13 1009.0 - 0.0 - - - - - - -
04/01:30pm 17.0 NNW 7 11 1009.2 - 0.0 - - - - - - -
04/01:00pm 16.8 NNW 10 14 1009.9 - 0.0 - - - - - - -
04/12:30pm 16.4 N 8 11 1010.3 - 0.0 - - - - - - -
04/12:00pm 15.4 N 12 16 1011.2 - 0.0 - - - - - - -
04/11:30am 15.4 NNW 14 17 1012.0 - 0.0 - - - - - - -
04/11:00am 14.2 NNW 11 15 1012.3 - 0.0 - - - - - - -
04/10:30am 12.8 NNW 15 19 1012.7 - 0.0 - - - - - - -
04/10:00am 13.1 NNW 13 17 1013.0 - 0.0 - - - - - - -
04/09:30am 11.5 NNW 11 14 1013.7 - 0.0 - - - - - - -
04/09:00am 10.4 NNW 11 15 1014.0 - 0.2 - - - - - - -
04/08:30am 9.2 NNW 13 17 1014.0 - 0.2 - - - - - - -
04/08:00am 8.6 NNW 15 18 1014.0 - 0.2 - - - - - - -
04/07:30am 8.9 NNW 13 19 1013.9 - 0.2 - - - - - - -
04/07:00am 9.1 NNW 12 16 1014.0 - 0.2 - - - - - - -
04/06:30am 9.1 NNW 9 12 1014.0 - 0.2 - - - - - - -
04/06:00am 9.5 NNW 9 12 1014.4 - 0.2 - - - - - - -
04/05:30am 9.4 NNW 10 13 1014.3 - 0.2 - - - - - - -
04/05:00am 10.0 NNW 8 11 1014.4 - 0.2 - - - - - - -
04/04:30am 10.1 NNW 9 11 1014.4 - 0.2 - - - - - - -
04/04:00am 10.5 NNW 8 9 1014.6 - 0.2 - - - - - - -
04/03:30am 10.3 NNW 6 8 1014.7 - 0.2 - - - - - - -
04/03:00am 10.5 NNW 7 9 1015.4 - 0.2 - - - - - - -
04/02:30am 10.8 NNW 5 8 1015.6 - 0.2 - - - - - - -
04/02:00am 11.1 CALM 0 3 1015.8 - 0.2 - - - - - - -
04/01:30am 11.6 WNW 4 5 1016.0 - 0.2 - - - - - - -
04/01:00am 12.5 CALM 0 0 1016.2 - 0.2 - - - - - - -
04/12:30am 12.4 WNW 4 5 1016.6 - 0.2 - - - - - - -
04/12:00am 12.5 CALM 0 0 1016.6 - 0.2 - - - - - - -
 
Date/Time
EST
Temp

°C
Wind Pressure Rain
since 9am
mm
Weather Cloud Vis
km
Sea
Height
m
Swell
Dir
 
Speed
knots
Gust
knots
hPa Trend Height
m
Period
s
Dir
03/11:30pm 12.6 NW 3 5 1016.9 - 0.2 - - - - - - -
03/11:00pm 12.9 W 5 6 1017.1 - 0.2 - - - - - - -
03/10:30pm 12.8 WSW 2 6 1017.2 - 0.2 - - - - - - -
03/10:00pm 12.7 WSW 3 5 1017.3 - 0.2 - - - - - - -
03/09:30pm 13.1 CALM 0 0 1017.5 - 0.2 - - - - - - -
03/09:00pm 13.6 W 4 5 1017.4 - 0.2 - - - - - - -
03/08:30pm 13.7 WSW 4 6 1017.3 - 0.2 - - - - - - -
03/08:00pm 13.9 WSW 7 8 1017.3 - 0.2 - - - - - - -
03/07:30pm 13.9 WSW 7 9 1017.2 - 0.2 - - - - - - -
03/07:00pm 14.3 W 4 7 1017.1 - 0.2 - - - - - - -
03/06:30pm 14.6 WSW 3 7 1016.9 - 0.2 - - - - - - -
03/06:00pm 15.3 SE 6 7 1016.8 - 0.2 - - - - - - -
03/05:30pm 15.4 ESE 7 8 1016.3 - 0.2 - - - - - - -
03/05:00pm 15.7 SW 4 6 1016.3 - 0.2 - - - - - - -
03/04:30pm 16.3 SSW 6 9 1016.2 - 0.2 - - - - - - -
03/04:00pm 16.4 SSE 7 9 1016.0 - 0.2 - - - - - - -
03/03:30pm 17.5 NNW 7 9 1016.0 - 0.2 - - - - - - -
03/03:00pm 18.0 NW 6 8 1015.8 - 0.2 - - - - - - -
03/02:30pm 19.1 NW 8 12 1015.6 - 0.2 - - - - - - -
03/02:00pm 18.0 NW 10 15 1015.4 - 0.2 - - - - - - -
03/01:30pm 17.3 NW 11 15 1015.3 - 0.0 - - - - - - -
03/01:00pm 18.0 NW 10 16 1015.3 - 0.0 - - - - - - -
03/12:30pm 17.6 NW 11 17 1015.3 - 0.0 - - - - - - -
03/12:00pm 17.7 NW 11 16 1015.5 - 0.0 - - - - - - -
03/11:30am 17.2 NW 11 16 1015.7 - 0.0 - - - - - - -
03/11:00am 16.3 NNW 10 14 1015.6 - 0.0 - - - - - - -
03/10:30am 15.1 NNW 10 16 1015.5 - 0.0 - - - - - - -
03/10:00am 15.5 NNW 12 17 1015.3 - 0.0 - - - - - - -
03/09:30am 14.7 NNW 10 16 1015.4 - 0.0 - - - - - - -
03/09:00am 13.9 NNW 14 21 1015.3 - 7.6 - - - - - - -
03/08:30am 13.1 NNE 10 16 1015.5 - 7.6 - - - - - - -
03/08:00am 12.4 SE 4 7 1015.4 - 7.6 - - - - - - -
03/07:30am 12.2 NW 13 18 1014.6 - 7.6 - - - - - - -
03/07:00am 12.3 NNW 15 22 1014.3 - 7.6 - - - - - - -
03/06:30am 12.1 NW 16 23 1013.9 - 7.6 - - - - - - -
03/06:00am 11.5 NW 16 22 1013.5 - 7.6 - - - - - - -
03/05:30am 11.6 NW 14 18 1013.5 - 7.6 - - - - - - -
03/05:00am 11.9 NW 13 19 1013.3 - 7.6 - - - - - - -
03/04:30am 11.6 NW 11 15 1013.2 - 7.6 - - - - - - -
03/04:00am 11.8 NW 10 14 1013.0 - 7.6 - - - - - - -
03/03:30am 11.8 NNW 5 10 1012.7 - 7.6 - - - - - - -
03/03:00am 11.1 S 4 6 1012.4 - 7.6 - - - - - - -
03/02:30am 10.2 NW 3 6 1012.1 - 7.6 - - - - - - -
03/02:00am 10.1 WSW 4 6 1012.1 - 7.6 - - - - - - -
03/01:30am 10.1 NNW 8 11 1011.8 - 7.6 - - - - - - -
03/01:00am 9.9 WNW 6 7 1011.9 - 7.6 - - - - - - -
03/12:30am 10.4 NNW 8 12 1011.7 - 7.6 - - - - - - -
03/12:00am 10.3 NNW 7 8 1012.0 - 7.6 - - - - - - -
 
Date/Time
EST
Temp

°C
Wind Pressure Rain
since 9am
mm
Weather Cloud Vis
km
Sea
Height
m
Swell
Dir
 
Speed
knots
Gust
knots
hPa Trend Height
m
Period
s
Dir
02/11:30pm 10.1 ENE 1 5 1012.1 - 7.6 - - - - - - -
02/11:00pm 10.1 NW 5 6 1012.2 - 7.6 - - - - - - -
02/10:30pm 10.2 NNW 5 6 1012.1 - 7.6 - - - - - - -
02/10:00pm 10.6 W 4 5 1012.2 - 7.6 - - - - - - -
02/09:30pm 11.1 SSW 4 5 1012.2 - 7.6 - - - - - - -
02/09:00pm 11.6 N 4 6 1012.2 - 7.4 - - - - - - -
02/08:30pm 11.8 NW 7 9 1012.0 - 7.4 - - - - - - -
02/08:00pm 11.7 NW 6 8 1012.2 - 7.4 - - - - - - -
02/07:30pm 11.9 NNW 6 9 1012.1 - 7.4 - - - - - - -
02/07:00pm 12.4 NNW 5 9 1012.3 - 7.4 - - - - - - -
02/06:30pm 12.7 N 8 14 1012.6 - 6.8 - - - - - - -
02/06:00pm 12.9 NNW 10 15 1013.0 - 5.0 Rain - - - - - -
02/05:30pm 15.5 NW 6 9 1012.3 - 1.2 - - - - - - -
02/05:00pm 15.9 NW 6 11 1011.7 - 0.4 - - - - - - -
02/04:30pm 17.3 NW 7 11 1011.8 - 0.0 - - - - - - -
02/04:00pm 17.9 N 6 9 1011.6 - 0.0 - - - - - - -
02/03:30pm 17.5 CALM 0 0 1011.9 - 0.0 - - - - - - -
02/03:00pm 17.4 NE 4 5 1012.2 - 0.0 - - - - - - -
02/02:30pm 17.5 NNW 5 7 1012.7 - 0.0 - - - - - - -
02/02:00pm 17.3 N 6 8 1013.1 - 0.0 - - - - - - -
02/01:30pm 17.5 N 5 7 1013.4 - 0.0 - - - - - - -
02/01:00pm 17.4 NNW 8 11 1014.0 - 0.0 - - - - - - -
02/12:30pm 17.6 NNW 10 15 1014.7 - 0.0 - - - - - - -
02/12:00pm 17.5 NNW 11 16 1015.1 - 0.0 - - - - - - -
02/11:30am 17.2 NNW 13 18 1015.8 - 0.0 - - - - - - -
02/11:00am 16.1 NNW 11 14 1016.3 - 0.0 - - - - - - -
02/10:30am 15.6 NNW 11 14 1016.6 - 0.0 - - - - - - -
02/10:00am 14.4 NNW 9 13 1016.9 - 0.0 - - - - - - -
02/09:30am 11.6 NNW 10 14 1017.2 - 0.0 - - - - - - -
02/09:00am 11.8 NNW 10 13 1017.9 - 0.0 - - - - - - -
02/08:30am 11.3 NNW 10 12 1018.3 - 0.0 - - - - - - -
02/08:00am 11.4 NNW 9 11 1018.6 - 0.0 - - - - - - -
02/07:30am 10.8 N 5 8 1018.7 - 0.0 - - - - - - -
02/07:00am 10.5 NNW 8 10 1018.9 - 0.0 - - - - - - -
02/06:30am 10.3 NNW 9 11 1018.8 - 0.0 - - - - - - -
02/06:00am 10.8 NNW 9 11 1018.6 - 0.0 - - - - - - -
02/05:30am 12.1 NNW 10 12 1018.6 - 0.0 - - - - - - -
02/05:00am 11.5 NNW 9 11 1018.7 - 0.0 - - - - - - -
02/04:30am 11.2 NNW 9 11 1019.1 - 0.0 - - - - - - -
02/04:00am 10.9 NNW 10 14 1019.3 - 0.0 - - - - - - -
02/03:30am 11.1 NNW 12 15 1019.3 - 0.0 - - - - - - -
02/03:00am 11.7 NNW 13 15 1019.4 - 0.0 - - - - - - -
02/02:30am 11.9 NNW 11 14 1019.8 - 0.0 - - - - - - -
02/02:00am 12.1 NNW 11 14 1020.2 - 0.0 - - - - - - -
02/01:30am 11.7 NNW 10 13 1020.5 - 0.0 - - - - - - -
02/01:00am 11.6 NNW 11 14 1020.7 - 0.0 - - - - - - -
02/12:30am 12.0 NNW 8 10 1020.9 - 0.0 - - - - - - -
02/12:00am 12.2 NNW 11 14 1021.2 - 0.0 - - - - - - -
 
Date/Time
EST
Temp

°C
Wind Pressure Rain
since 9am
mm
Weather Cloud Vis
km
Sea
Height
m
Swell
Dir
 
Speed
knots
Gust
knots
hPa Trend Height
m
Period
s
Dir
01/11:30pm 11.8 NNW 9 12 1021.4 - 0.0 - - - - - - -

Other Formats:

Comma delimited format used in spreadsheet applications
http://www.bom.gov.au/fwo/IDT60701/IDT60701.94970.axf

JavaScript Object Notation format (JSON) in row-major order
http://www.bom.gov.au/fwo/IDT60701/IDT60701.94970.json